Latest Weather Observations for Kowanyama

IDQ60801

Issued at 2:05 pm EST Saturday 2 August 2014 (issued every 30 minutes, with the page automatically refreshed every 10 minutes)

About weather observations | Map of weather stations | Latest weather observations for QLD | Other Formats
Station Details ID: 029038 Name: KOWANYAMA AIRPORT Lat: -15.48 Lon: 141.75 Height: 9.6 m
Data from the previous 72 hours. | See also: Recent months at Kowanyama
Date/Time
EST
Temp
°C
App
Temp
°C
Dew
Point
Rel
Hum
%
Delta-T
°C
Wind Press
QNH
hPa
Press
MSL
hPa
Rain
since 9 am
mm
Dir
 
Spd
km/h
Gust
km/h
Spd
kts
Gust
kts
02/02:00pm 31.4 30.8 14.5 35 10.3 E 11 19 6 10 1014.1 - 0.0
02/01:30pm 31.1 30.0 14.3 36 10.2 SE 13 22 7 12 1014.7 - 0.0
02/01:00pm 30.0 29.9 14.9 39 9.2 ESE 9 20 5 11 1015.1 - 0.0
02/12:30pm 30.0 30.1 14.5 38 9.4 SE 7 15 4 8 1015.6 - 0.0
02/12:00pm 29.9 30.2 16.0 43 8.6 E 9 17 5 9 1016.2 1016.1 0.0
02/11:30am 28.9 28.7 16.8 48 7.6 ESE 13 17 7 9 1016.8 - 0.0
02/11:00am 27.6 27.9 16.9 52 6.7 ESE 11 19 6 10 1017.2 - 0.0
02/10:30am 27.2 27.3 17.4 55 6.2 ENE 13 20 7 11 1017.6 - 0.0
02/10:00am 26.4 27.0 17.7 58 5.5 E 11 17 6 9 1017.8 - 0.0
02/09:30am 25.2 25.4 17.7 63 4.7 ENE 13 20 7 11 1017.6 - 0.0
02/09:00am 24.5 25.0 18.4 69 3.8 NE 13 20 7 11 1017.6 1017.5 0.0
02/08:30am 23.4 24.2 18.1 72 3.3 NE 11 15 6 8 1017.2 - 0.0
02/08:00am 21.4 23.2 18.4 83 1.9 E 6 7 3 4 1017.0 - 0.0
02/07:30am 18.8 20.5 17.1 90 1.0 ESE 4 7 2 4 1016.8 - 0.0
02/07:00am 18.8 21.4 17.5 92 0.8 CALM 0 6 0 3 1016.5 - 0.0
02/06:30am 18.5 20.3 17.3 93 0.7 ENE 4 7 2 4 1016.2 - 0.0
02/06:00am 18.6 20.0 17.3 92 0.8 ESE 6 7 3 4 1015.8 1015.7 0.0
02/05:30am 17.8 20.1 16.7 93 0.7 CALM 0 0 0 0 1015.4 - 0.0
02/05:00am 18.1 20.3 16.6 91 0.9 CALM 0 0 0 0 1015.3 - 0.0
02/04:30am 18.8 21.1 16.8 88 1.2 CALM 0 0 0 0 1015.0 - 0.0
02/04:00am 19.5 21.5 16.9 85 1.6 E 2 6 1 3 1014.8 - 0.0
02/03:30am 20.3 21.7 17.7 85 1.6 E 7 13 4 7 1015.2 - 0.0
02/03:00am 20.1 20.6 18.4 90 1.1 E 13 22 7 12 1015.0 1014.9 0.0
02/02:30am 19.5 21.1 18.2 92 0.8 S 7 9 4 5 1014.7 - 0.0
02/02:00am 18.4 19.6 16.9 91 0.9 S 6 9 3 5 1015.0 - 0.0
02/01:30am 18.4 20.7 16.7 90 1.0 CALM 0 0 0 0 1015.3 - 0.0
02/01:00am 18.6 20.8 16.6 88 1.2 CALM 0 0 0 0 1015.4 - 0.0
02/12:30am 18.8 21.1 16.8 88 1.2 CALM 0 0 0 0 1015.3 - 0.0
02/12:00am 19.2 21.7 17.2 88 1.2 NW 0 0 0 0 1015.4 1015.3 0.0
 
Date/Time
EST
Temp
°C
App
Temp
°C
Dew
Point
Rel
Hum
%
Delta-T
°C
Wind Press
QNH
hPa
Press
MSL
hPa
Rain
since 9 am
mm
Dir
 
Spd
km/h
Gust
km/h
Spd
kts
Gust
kts
01/11:30pm 19.5 22.0 17.3 87 1.3 CALM 0 0 0 0 1015.5 - 0.0
01/11:00pm 19.8 22.4 17.4 86 1.5 CALM 0 0 0 0 1015.5 - 0.0
01/10:30pm 20.2 22.9 17.8 86 1.5 CALM 0 0 0 0 1015.8 - 0.0
01/10:00pm 20.6 23.2 17.6 83 1.8 CALM 0 0 0 0 1015.8 - 0.0
01/09:30pm 21.1 23.6 17.3 79 2.3 CALM 0 0 0 0 1015.6 - 0.0
01/09:00pm 21.9 24.1 17.5 76 2.7 WNW 2 6 1 3 1015.7 1015.6 0.0
01/08:30pm 22.4 24.8 17.1 72 3.3 CALM 0 0 0 0 1015.5 - 0.0
01/08:00pm 23.2 24.8 17.0 68 3.8 W 4 7 2 4 1015.2 - 0.0
01/07:30pm 23.6 24.2 16.9 66 4.1 WSW 9 13 5 7 1014.8 - 0.0
01/07:00pm 24.3 24.4 16.6 62 4.7 WSW 11 15 6 8 1014.3 - 0.0
01/06:30pm 24.9 25.0 16.6 60 5.1 W 11 17 6 9 1013.8 - 0.0
01/06:00pm 26.0 25.0 16.5 55 5.9 W 17 20 9 11 1013.5 1013.4 0.0
01/05:30pm 27.3 26.0 16.9 53 6.5 W 19 24 10 13 1013.2 - 0.0
01/05:00pm 27.9 26.5 17.1 51 6.8 W 20 26 11 14 1013.2 - 0.0
01/04:30pm 28.8 27.7 17.3 49 7.2 WSW 19 28 10 15 1013.0 - 0.0
01/04:00pm 28.8 27.5 17.3 49 7.2 W 20 28 11 15 1012.9 - 0.0
01/03:30pm 29.7 28.2 17.8 48 7.6 W 22 30 12 16 1012.9 - 0.0
01/03:00pm 31.3 30.5 17.9 44 8.6 SW 19 24 10 13 1013.3 1013.2 0.0
01/02:30pm 30.3 29.8 14.8 39 9.5 SSE 11 19 6 10 1013.5 - 0.0
01/02:00pm 30.4 30.1 14.5 38 9.7 SSE 9 22 5 12 1013.8 - 0.0
01/01:30pm 31.2 30.6 15.6 39 9.7 SSE 13 19 7 10 1014.4 - 0.0
01/01:00pm 30.1 29.8 15.4 41 9.0 SSE 11 22 6 12 1015.1 - 0.0
01/12:30pm 30.6 31.8 17.3 45 8.4 NE 7 13 4 7 1015.6 - 0.0
01/12:00pm 30.0 30.1 16.4 44 8.5 ESE 11 20 6 11 1016.1 1016.0 0.0
01/11:30am 28.7 29.7 16.3 47 7.7 NNE 6 15 3 8 1016.4 - 0.0
01/11:00am 28.1 28.7 16.7 50 7.1 E 9 17 5 9 1016.6 - 0.0
01/10:30am 27.8 28.5 17.0 51 6.8 ENE 9 13 5 7 1017.0 - 0.0
01/10:00am 26.2 26.2 17.3 58 5.6 ENE 13 20 7 11 1017.1 - 0.0
01/09:30am 25.5 25.6 17.4 61 5.1 ENE 13 20 7 11 1017.1 - 0.0
01/09:00am 24.3 25.0 18.0 68 3.9 ENE 11 17 6 9 1016.9 1016.8 0.0
01/08:30am 22.6 25.0 19.6 83 1.9 ENE 6 9 3 5 1016.9 - 0.0
01/08:00am 20.7 23.3 19.2 91 0.9 E 4 7 2 4 1016.7 - 0.0
01/07:30am 19.1 20.9 18.4 96 0.4 E 6 7 3 4 1016.4 - 0.0
01/07:00am 18.1 20.2 17.3 95 0.5 E 2 6 1 3 1016.2 - 0.0
01/06:30am 18.7 20.3 18.2 97 0.3 E 7 9 4 5 1016.0 - 0.0
01/06:00am 18.0 20.5 17.2 95 0.5 CALM 0 0 0 0 1015.6 1015.5 0.0
01/05:30am 18.2 20.8 17.4 95 0.5 CALM 0 0 0 0 1015.3 - 0.0
01/05:00am 18.7 21.5 17.9 95 0.5 CALM 0 0 0 0 1015.0 - 0.0
01/04:30am 18.8 21.7 18.1 96 0.4 CALM 0 0 0 0 1014.9 - 0.0
01/04:00am 18.6 21.3 17.8 95 0.5 CALM 0 0 0 0 1014.7 - 0.0
01/03:30am 18.7 21.4 17.7 94 0.6 CALM 0 0 0 0 1014.7 - 0.0
01/03:00am 19.2 22.1 18.2 94 0.6 CALM 0 0 0 0 1015.0 1014.9 0.0
01/02:30am 19.3 22.2 18.3 94 0.6 CALM 0 0 0 0 1015.2 - 0.0
01/02:00am 19.6 22.7 18.6 94 0.6 CALM 0 0 0 0 1015.3 - 0.0
01/01:30am 19.8 21.8 18.8 94 0.6 NNE 6 7 3 4 1015.3 - 0.0
01/01:00am 20.0 22.0 19.2 95 0.5 NE 7 9 4 5 1015.4 - 0.0
01/12:30am 19.7 20.7 18.7 94 0.6 NE 11 19 6 10 1015.3 - 0.0
01/12:00am 20.0 23.2 18.8 93 0.8 CALM 0 0 0 0 1015.3 1015.2 0.0
 
Date/Time
EST
Temp
°C
App
Temp
°C
Dew
Point
Rel
Hum
%
Delta-T
°C
Wind Press
QNH
hPa
Press
MSL
hPa
Rain
since 9 am
mm
Dir
 
Spd
km/h
Gust
km/h
Spd
kts
Gust
kts
31/11:30pm 20.3 23.6 19.1 93 0.8 CALM 0 0 0 0 1015.6 - 0.0
31/11:00pm 20.7 24.0 19.2 91 0.9 CALM 0 0 0 0 1015.6 - 0.0
31/10:30pm 20.9 24.2 19.2 90 1.1 CALM 0 0 0 0 1015.5 - 0.0
31/10:00pm 21.2 24.6 19.3 89 1.2 CALM 0 0 0 0 1015.4 - 0.0
31/09:30pm 21.8 24.1 19.4 86 1.5 SW 6 7 3 4 1015.4 - 0.0
31/09:00pm 22.2 24.4 19.6 85 1.7 SW 7 9 4 5 1015.3 1015.2 0.0
31/08:30pm 22.5 24.6 19.3 82 2.0 SW 7 13 4 7 1015.0 - 0.0
31/08:00pm 23.0 24.3 19.2 79 2.4 SW 11 13 6 7 1014.5 - 0.0
31/07:30pm 23.6 25.1 18.9 75 3.0 WSW 9 15 5 8 1014.1 - 0.0
31/07:00pm 24.4 25.3 18.3 69 3.8 WSW 11 17 6 9 1013.8 - 0.0
31/06:30pm 25.6 26.2 17.8 62 4.9 SW 11 15 6 8 1013.5 - 0.0
31/06:00pm 26.8 26.6 17.6 57 5.8 WSW 15 20 8 11 1013.3 1013.2 0.0
31/05:30pm 27.8 27.3 17.9 54 6.3 SW 17 20 9 11 1013.1 - 0.0
31/05:00pm 28.8 28.5 18.3 53 6.7 W 17 22 9 12 1013.0 - 0.0
31/04:30pm 29.3 28.6 18.7 52 6.8 W 20 30 11 16 1012.8 - 0.0
31/04:00pm 31.8 31.9 14.4 34 10.6 ESE 7 11 4 6 1012.8 - 0.0
31/03:30pm 31.2 30.7 13.9 35 10.5 SSE 9 17 5 9 1012.8 - 0.0
31/03:00pm 31.2 29.6 13.9 35 10.5 S 15 20 8 11 1013.2 1013.1 0.0
31/02:30pm 31.3 30.8 14.9 37 10.1 S 11 17 6 9 1013.6 - 0.0
31/02:00pm 31.8 30.9 14.9 36 10.4 ESE 13 24 7 13 1013.9 - 0.0
31/01:30pm 30.8 29.4 14.4 36 10.0 ESE 15 22 8 12 1014.3 - 0.0
31/01:00pm 30.3 30.1 14.8 39 9.5 ENE 9 15 5 8 1014.9 - 0.0
31/12:30pm 29.8 29.1 14.4 39 9.3 E 11 17 6 9 1015.3 - 0.0
31/12:00pm 29.1 28.7 15.2 42 8.5 ENE 11 19 6 10 1015.6 1015.5 0.0
31/11:30am 28.2 28.3 16.5 49 7.3 NE 11 19 6 10 1016.2 - 0.0
31/11:00am 27.6 27.5 16.9 52 6.7 NE 13 20 7 11 1016.5 - 0.0
31/10:30am 26.5 26.3 16.7 55 6.1 NE 13 20 7 11 1016.9 - 0.0
31/10:00am 25.6 24.9 17.3 60 5.2 ENE 17 26 9 14 1017.3 - 0.0
31/09:30am 24.5 23.7 17.0 63 4.6 ENE 17 22 9 12 1017.3 - 0.0
31/09:00am 23.6 24.0 17.3 67 3.9 ENE 11 19 6 10 1017.2 1017.1 0.0
31/08:30am 21.9 23.3 17.3 75 2.8 NE 6 9 3 5 1016.9 - 0.0
31/08:00am 18.9 21.2 16.7 87 1.3 CALM 0 0 0 0 1016.9 - 0.0
31/07:30am 17.2 19.3 16.2 94 0.6 CALM 0 0 0 0 1016.7 - 0.0
31/07:00am 16.9 18.9 15.9 94 0.6 CALM 0 0 0 0 1016.6 - 0.0
31/06:30am 17.1 19.1 16.1 94 0.6 CALM 0 0 0 0 1016.3 - 0.0
31/06:00am 17.3 19.4 16.2 93 0.7 CALM 0 0 0 0 1016.1 1016.0 0.0
31/05:30am 17.8 20.1 16.7 93 0.7 CALM 0 0 0 0 1016.0 - 0.0
31/05:00am 17.9 20.1 16.6 92 0.8 CALM 0 0 0 0 1016.1 - 0.0
31/04:30am 18.5 20.9 17.0 91 0.9 CALM 0 0 0 0 1016.0 - 0.0
31/04:00am 19.0 21.4 17.1 89 1.2 CALM 0 2 0 1 1016.0 - 0.0
31/03:30am 19.5 21.6 17.1 86 1.5 ENE 2 6 1 3 1016.0 - 0.0
31/03:00am 19.9 21.4 17.7 87 1.4 NE 6 7 3 4 1016.0 1015.9 0.0
31/02:30am 19.7 22.7 18.4 92 0.8 CALM 0 7 0 4 1016.1 - 0.0
31/02:00am 20.1 23.1 18.4 90 1.1 CALM 0 0 0 0 1016.3 - 0.0
31/01:30am 20.4 23.4 18.5 89 1.2 CALM 0 0 0 0 1016.4 - 0.0
31/01:00am 21.0 23.8 18.9 88 1.3 NNE 2 7 1 4 1016.6 - 0.0
31/12:30am 21.0 23.2 19.1 89 1.2 NE 6 7 3 4 1016.6 - 0.0
31/12:00am 20.8 22.8 18.7 88 1.3 E 6 7 3 4 1016.6 1016.5 0.0
 
Date/Time
EST
Temp
°C
App
Temp
°C
Dew
Point
Rel
Hum
%
Delta-T
°C
Wind Press
QNH
hPa
Press
MSL
hPa
Rain
since 9 am
mm
Dir
 
Spd
km/h
Gust
km/h
Spd
kts
Gust
kts
30/11:30pm 20.9 22.9 19.2 90 1.1 E 7 11 4 6 1016.5 - 0.0
30/11:00pm 21.3 23.3 19.2 88 1.3 S 7 11 4 6 1016.2 - 0.0
30/10:30pm 21.4 23.9 19.1 87 1.5 S 4 7 2 4 1016.0 - 0.0
30/10:00pm 21.6 23.2 19.2 86 1.5 SSW 9 11 5 6 1015.9 - 0.0
30/09:30pm 21.8 23.8 19.2 85 1.6 SSW 7 9 4 5 1015.7 - 0.0
30/09:00pm 22.1 23.8 18.5 80 2.3 SW 7 11 4 6 1015.5 1015.4 0.0
30/08:30pm 22.7 24.1 17.8 74 3.0 WSW 7 9 4 5 1015.3 - 0.0
30/08:00pm 23.5 24.5 17.7 70 3.6 WSW 9 11 5 6 1015.0 - 0.0
30/07:30pm 24.1 24.9 17.4 66 4.2 W 9 13 5 7 1014.7 - 0.0
30/07:00pm 25.0 25.4 17.2 62 4.8 WSW 11 15 6 8 1014.2 - 0.0
30/06:30pm 26.7 27.3 16.9 55 6.1 SSW 9 15 5 8 1013.9 - 0.0
30/06:00pm 29.7 29.2 13.9 38 9.5 ESE 9 15 5 8 1013.6 1013.5 0.0
30/05:30pm 30.4 28.6 13.2 35 10.2 ESE 15 20 8 11 1013.3 - 0.0
30/05:00pm 30.9 29.6 13.7 35 10.3 ESE 13 19 7 10 1013.1 - 0.0
30/04:30pm 31.2 29.8 13.5 34 10.6 ESE 13 17 7 9 1013.0 - 0.0
30/04:00pm 31.4 30.3 13.2 33 10.9 E 11 24 6 13 1012.8 - 0.0
30/03:30pm 31.7 30.1 13.9 34 10.8 E 15 24 8 13 1012.9 - 0.0
30/03:00pm 31.2 29.5 13.5 34 10.6 ESE 15 26 8 14 1013.1 1013.0 0.0
30/02:30pm 31.0 29.7 13.7 34 10.4 E 13 28 7 15 1013.5 - 0.0

Other Formats:

Comma delimited format used in spreadsheet applications
http://www.bom.gov.au/fwo/IDQ60801/IDQ60801.94268.axf

JavaScript Object Notation format (JSON) in row-major order
http://www.bom.gov.au/fwo/IDQ60801/IDQ60801.94268.json